x

9441102 - Westport, Wa (wptw1) Weather Station

12:30 - Tue 26th Jul 2016 All times are PDT. -7 hours from GMT.

  • Wind
    16mph, 18mph gusts
  • Sea Temp 61°f
  • Air Temp 60°f
  • Sea Pressure 1022.9mb
  • 9441102 - Westport, Wa
  • 9441102 - Westport, Wa

More Historic Weather Station data

Upgrade to MSW Pro to gain access to the past 30 days of data for over 8000 Wavebouys and Weather Stations around the globe.

Join Pro

Comparision Forecast

View Surf forecast
   
mar. 07/26 12:30 16 18 mph 1022.9mb 61f 60f
12:24 18 21 mph 1023mb 61f 60f
12:18 17 21 mph 1022.9mb 61f 60f
12:12 17 22 mph 1022.9mb 61f 60f
12:06 15 22 mph 1022.9mb 61f 60f
12:00 18 21 mph 1022.9mb 61f 60f
11:36 17 20 mph 1023mb 60f 60f
11:30 17 21 mph 1023mb 60f 60f
11:24 15 18 mph 1023mb 60f 60f
11:18 14 17 mph 1023mb 60f 60f
11:12 13 16 mph 1022.9mb 60f 59f
11:06 16 18 mph 1023mb 60f 59f
11:00 15 21 mph 1023.1mb 60f 59f
10:36 16 20 mph 1022.8mb 60f 59f
10:30 17 22 mph 1022.9mb 60f 59f
10:24 17 21 mph 1022.7mb 60f 59f
10:18 16 20 mph 1022.7mb 60f 59f
10:12 20 22 mph 1022.7mb 60f 59f
10:06 15 22 mph 1022.7mb 60f 59f
10:00 20 23 mph 1022.8mb 60f 59f
9:36 14 18 mph 1022.9mb 60f 59f
9:30 16 18 mph 1022.8mb 60f 59f
9:24 16 20 mph 1022.8mb 60f 59f
9:18 17 21 mph 1022.8mb 60f 59f
9:12 17 20 mph 1022.8mb 60f 59f
9:06 17 21 mph 1022.7mb 59f 59f
9:00 18 20 mph 1022.6mb 59f 59f
8:36 16 18 mph 1022.7mb 59f 58f
8:30 16 18 mph 1022.6mb 59f 58f
8:24 14 17 mph 1022.6mb 58f 58f
8:18 14 17 mph 1022.6mb 58f 58f
8:12 13 16 mph 1022.6mb 58f 58f
8:06 13 16 mph 1022.5mb 58f 58f
8:00 14 16 mph 1022.5mb 58f 58f
7:36 16 20 mph 1022.4mb 57f 58f
7:30 14 16 mph 1022.4mb 57f 58f
7:24 16 20 mph 1022.3mb 56f 58f
7:18 15 17 mph 1022.2mb 56f 58f
7:12 15 18 mph 1022.2mb 56f 58f
7:06 16 21 mph 1022.1mb 56f 58f
7:00 17 21 mph 1022.1mb 57f 58f
6:36 15 17 mph 1021.8mb 57f 58f
6:30 15 22 mph 1021.8mb 57f 58f
6:24 21 23 mph 1021.8mb 57f 58f
6:18 16 20 mph 1021.8mb 56f 58f
6:12 16 17 mph 1021.8mb 57f 58f
6:06 16 21 mph 1021.8mb 57f 58f
6:00 15 22 mph 1021.8mb 57f 58f
5:36 17 20 mph 1021.6mb 60f 58f
5:30 17 21 mph 1021.7mb 60f 58f
5:24 16 21 mph 1021.6mb 60f 58f
5:18 17 21 mph 1021.5mb 60f 58f
5:12 15 18 mph 1021.5mb 60f 58f
5:06 16 21 mph 1021.5mb 60f 58f
5:00 15 17 mph 1021.5mb 60f 58f
4:36 14 17 mph 1021.5mb 60f 57f
4:30 14 17 mph 1021.5mb 60f 57f
4:24 14 17 mph 1021.5mb 60f 57f
4:18 13 16 mph 1021.5mb 60f 57f
4:12 13 14 mph 1021.5mb 60f 57f
4:06 13 15 mph 1021.4mb 61f 57f
4:00 13 15 mph 1021.4mb 61f 57f
3:36 13 16 mph 1021.3mb 61f 58f
3:30 9 13 mph 1021.3mb 61f 58f
3:24 10 14 mph 1021.2mb 61f 58f
3:18 13 15 mph 1021.2mb 60f 58f
3:12 13 16 mph 1021.2mb 60f 58f
3:06 14 17 mph 1021.2mb 60f 58f
3:00 14 18 mph 1021.2mb 60f 58f
2:36 17 18 mph 1021.1mb 60f 58f
2:30 15 16 mph 1021.2mb 60f 58f
2:24 16 22 mph 1021.1mb 60f 58f
2:18 21 23 mph 1021.1mb 60f 58f
2:12 15 17 mph 1021mb 60f 58f
2:06 16 20 mph 1021.1mb 60f 58f
2:00 16 21 mph 1021.2mb 60f 58f
1:36 17 20 mph 1021.2mb 60f 58f
1:30 15 20 mph 1021.2mb 60f 58f
1:24 16 20 mph 1021.3mb 60f 58f
1:18 16 20 mph 1021.2mb 60f 58f
1:12 17 21 mph 1021.1mb 61f 58f
1:06 18 22 mph 1021.1mb 61f 58f
1:00 20 23 mph 1021.1mb 61f 58f
12:36 21 22 mph 1021.1mb 61f 58f
12:30 16 18 mph 1021.1mb 61f 58f
12:24 17 22 mph 1021.1mb 61f 58f
12:18 16 20 mph 1021.1mb 61f 58f
12:12 15 18 mph 1021.1mb 61f 58f
12:06 14 17 mph 1021.1mb 61f 58f
12:00 15 17 mph 1021.1mb 61f 58f
lun. 07/25 11:36 18 22 mph 1021mb 61f 58f
11:30 16 22 mph 1021.1mb 61f 58f
11:24 16 22 mph 1021.1mb 60f 58f
11:18 18 21 mph 1021.2mb 60f 58f
11:12 17 21 mph 1021.1mb 60f 58f
11:06 18 21 mph 1021.2mb 60f 58f
11:00 14 16 mph 1021.2mb 60f 58f
10:36 14 17 mph 1021.2mb 60f 58f
10:30 13 16 mph 1021.2mb 60f 58f
10:24 15 17 mph 1021.3mb 60f 58f
10:18 14 17 mph 1021.3mb 60f 58f
10:12 17 23 mph 1021.3mb 60f 58f
10:06 17 21 mph 1021.2mb 60f 58f
10:00 17 20 mph 1021.2mb 60f 58f
9:36 16 20 mph 1021.2mb 60f 58f
9:30 14 17 mph 1021mb 60f 58f
9:24 17 21 mph 1021mb 60f 58f
9:18 21 24 mph 1020.9mb 60f 58f
9:12 20 22 mph 1020.8mb 60f 58f
9:06 16 17 mph 1020.8mb 60f 58f
9:00 17 21 mph 1020.8mb 59f 58f
8:36 13 18 mph 1020.6mb 59f 58f
8:30 18 21 mph 1020.6mb 59f 58f
8:24 16 21 mph 1020.6mb 58f 58f
8:18 20 23 mph 1020.6mb 58f 58f
8:12 17 21 mph 1020.6mb 57f 58f
8:06 17 21 mph 1020.6mb 57f 58f
8:00 18 21 mph 1020.5mb 56f 58f
7:36 15 21 mph 1020.5mb 54f 58f
7:30 14 18 mph 1020.5mb 54f 58f
7:24 16 20 mph 1020.4mb 54f 58f
7:18 18 20 mph 1020.4mb 54f 58f
7:12 13 18 mph 1020.3mb 54f 58f
7:06 14 17 mph 1020.3mb 54f 58f
7:00 15 17 mph 1020.3mb 54f 58f
6:36 17 21 mph 1020.3mb 53f 58f
6:30 18 23 mph 1020.3mb 53f 58f
6:24 18 22 mph 1020.3mb 53f 58f
6:18 18 22 mph 1020.3mb 53f 59f
6:12 20 22 mph 1020.4mb 53f 59f
6:06 17 22 mph 1020.4mb 53f 59f
6:00 18 22 mph 1020.4mb 53f 59f
5:36 16 20 mph 1020.4mb 53f 59f
5:30 15 18 mph 1020.4mb 53f 59f
5:24 14 17 mph 1020.4mb 53f 59f
5:18 14 16 mph 1020.4mb 53f 59f
5:12 14 17 mph 1020.4mb 54f 59f
5:06 14 16 mph 1020.4mb 54f 59f
5:00 15 17 mph 1020.5mb 54f 59f
4:36 14 16 mph 1020.4mb 57f 60f
4:30 14 15 mph 1020.4mb 57f 60f
4:24 11 15 mph 1020.5mb 57f 59f
4:18 11 16 mph 1020.5mb 58f 60f
4:12 11 16 mph 1020.5mb 59f 59f
4:06 13 15 mph 1020.5mb 61f 59f
4:00 11 14 mph 1020.6mb 62f 59f
3:36 11 14 mph 1020.6mb 62f 59f
3:30 11 14 mph 1020.6mb 62f 59f
3:24 13 14 mph 1020.6mb 62f 59f
3:18 14 16 mph 1020.6mb 62f 60f
3:12 14 15 mph 1020.6mb 62f 60f
3:06 14 16 mph 1020.5mb 63f 60f
3:00 14 16 mph 1020.5mb 63f 60f
2:36 13 16 mph 1020.5mb 63f 59f
2:30 13 15 mph 1020.5mb 63f 59f
2:24 11 14 mph 1020.5mb 63f 59f
2:18 11 14 mph 1020.5mb 62f 60f
2:12 11 15 mph 1020.5mb 62f 60f
2:06 13 15 mph 1020.5mb 62f 60f
2:00 10 11 mph 1020.5mb 62f 60f
1:36 10 13 mph 1020.5mb 62f 60f
1:30 10 11 mph 1020.5mb 62f 60f
1:24 10 13 mph 1020.6mb 62f 60f
1:18 10 14 mph 1020.6mb 62f 60f
1:12 11 13 mph 1020.6mb 62f 60f
1:06 11 16 mph 1020.5mb 62f 60f
1:00 14 15 mph 1020.6mb 62f 61f
12:54 14 17 mph 1020.5mb 62f 61f
12:48 15 17 mph 1020.6mb 62f 60f
12:36 15 18 mph 1020.5mb 62f 61f
12:30 14 17 mph 1020.5mb 62f 61f
12:24 14 15 mph 1020.4mb 62f 61f
12:18 14 17 mph 1020.4mb 62f 61f
12:12 15 17 mph 1020.4mb 62f 61f
12:06 14 16 mph 1020.4mb 62f 61f
12:00 14 15 mph 1020.5mb 63f 61f
11:54 14 15 mph 1020.5mb 63f 61f
11:48 14 16 mph 1020.5mb 63f 61f
11:36 13 14 mph 1020.5mb 63f 61f
11:30 13 15 mph 1020.4mb 63f 61f
11:24 11 14 mph 1020.4mb 63f 61f
11:18 11 13 mph 1020.4mb 63f 61f
11:12 9 11 mph 1020.4mb 63f 61f
11:06 10 14 mph 1020.5mb 63f 61f
11:00 11 13 mph 1020.4mb 63f 61f
10:54 11 13 mph 1020.4mb 63f 61f
10:48 10 11 mph 1020.4mb 63f 61f
10:36 8 11 mph 1020.3mb 63f 60f
10:30 9 11 mph 1020.2mb 63f 60f
10:24 10 11 mph 1020.2mb 63f 60f
10:18 11 13 mph 1020.2mb 63f 59f
10:12 9 14 mph 1020.2mb 63f 59f
10:06 10 13 mph 1020.2mb 62f 59f
10:00 10 13 mph 1020.2mb 62f 59f
9:54 9 11 mph 1020.2mb 62f 59f
9:48 10 14 mph 1020.2mb 62f 59f
9:36 10 11 mph 1020.1mb 62f 59f
9:30 8 9 mph 1020.1mb 62f 59f
9:24 7 10 mph 1020.1mb 62f 59f
9:18 8 9 mph 1020.1mb 62f 59f
9:12 9 10 mph 1020.1mb 62f 58f
9:06 10 11 mph 1020mb 62f 58f
9:00 9 11 mph 1020mb 62f 58f
8:54 10 11 mph 1020mb 62f 58f
8:48 10 13 mph 1020mb 62f 58f
8:36 9 10 mph 1019.9mb 62f 58f
8:30 8 9 mph 1019.9mb 62f 58f
8:24 8 9 mph 1019.9mb 62f 58f
8:18 8 9 mph 1019.9mb 62f 58f
8:12 9 11 mph 1019.9mb 62f 57f
8:06 9 10 mph 1019.9mb 61f 57f
8:00 8 10 mph 1019.9mb 61f 57f
7:54 8 11 mph 1019.9mb 61f 57f
7:48 9 11 mph 1019.8mb 61f 57f
7:36 9 13 mph 1019.7mb 60f 57f
7:30 9 10 mph 1019.7mb 60f 57f
7:24 9 11 mph 1019.6mb 60f 57f
7:18 9 10 mph 1019.6mb 60f 57f
7:12 7 9 mph 1019.6mb 60f 57f
7:06 8 9 mph 1019.6mb 59f 57f
7:00 8
mph
1019.5mb 59f 57f
6:54 8 9 mph 1019.5mb 60f 57f
6:48 9
mph
1019.4mb 59f 57f
6:36 8 10 mph 1019.4mb 58f 57f
6:30 8 9 mph 1019.4mb 57f 57f
6:24 9 10 mph 1019.3mb 57f 57f
6:18 10 11 mph 1019.3mb 57f 57f
6:12 11 13 mph 1019.3mb 57f 57f
6:06 10 13 mph 1019.2mb 57f 57f
6:00 10 14 mph 1019.2mb 56f 57f
5:36 14 16 mph 1018.9mb 57f 57f
5:30 13 14 mph 1018.8mb 58f 57f
5:24 14 16 mph 1018.8mb 58f 57f
5:18 14 16 mph 1018.8mb 57f 57f
5:12 11 14 mph 1018.8mb 57f 57f
5:06 14 16 mph 1018.8mb 58f 57f
5:00 14 17 mph 1018.7mb 58f 57f
4:54 16 17 mph 1018.7mb 58f 57f
4:48 15 16 mph 1018.6mb 58f 57f
4:36 14 17 mph 1018.7mb 60f 57f
4:30 13 15 mph 1018.6mb 60f 57f
4:24 13 15 mph 1018.5mb 60f 57f
4:18 13 15 mph 1018.5mb 61f 57f
4:12 14 16 mph 1018.5mb 62f 57f
4:06 15 17 mph 1018.5mb 62f 57f
4:00 14 16 mph 1018.5mb 62f 57f
3:54 13 16 mph 1018.5mb 62f 57f
3:48 15 20 mph 1018.5mb 63f 57f
3:36 14 16 mph 1018.5mb 63f 57f
3:30 15 18 mph 1018.4mb 63f 57f
3:24 18 22 mph 1018.3mb 63f 57f
3:18 20 22 mph 1018.3mb 63f 57f
3:12 15 17 mph 1018.2mb 63f 57f
3:06 14 22 mph 1018.2mb 63f 57f
3:00 18 23 mph 1018.2mb 63f 57f
2:54 17 22 mph 1018.2mb 64f 57f
2:48 18 21 mph 1018.2mb 64f 57f
2:36 18 22 mph 1018.2mb 64f 57f
2:30 17 23 mph 1018.2mb 64f 57f
2:24 17 22 mph 1018.4mb 64f 57f
2:18 16 20 mph 1018.4mb 64f 57f
2:12 15 21 mph 1018.5mb 64f 57f
2:06 18 22 mph 1018.4mb 64f 57f
2:00 16 21 mph 1018.4mb 64f 57f
1:54 18 22 mph 1018.3mb 64f 57f
1:48 20 22 mph 1018.3mb 64f 57f
1:36 21 24 mph 1018.3mb 63f 58f
1:30 21 23 mph 1018.2mb 63f 58f
1:24 17 21 mph 1018.1mb 63f 58f
1:18 17 21 mph 1018.2mb 63f 58f
1:12 18 22 mph 1018.2mb 63f 58f
1:06 21 24 mph 1018.3mb 63f 58f
1:00 20 23 mph 1018.3mb 63f 58f
12:54 16 18 mph 1018.2mb 63f 58f
12:48 16 21 mph 1018.2mb 64f 58f
12:36 18 21 mph 1018mb 64f 58f
12:30 17 21 mph 1018mb 64f 58f
12:24 18 22 mph 1017.9mb 64f 58f
12:18 17 23 mph 1017.9mb 64f 58f
12:12 17 21 mph 1017.9mb 64f 58f
12:06 18 22 mph 1017.9mb 64f 58f
12:00 18 21 mph 1017.9mb 64f 58f
dim. 07/24 11:54 17 21 mph 1017.9mb 65f 58f
11:48 17 21 mph 1018mb 65f 58f
11:36 18 22 mph 1017.9mb 65f 58f
11:30 18 22 mph 1017.9mb 65f 58f
11:24 17 20 mph 1017.8mb 65f 58f
11:18 16 18 mph 1017.8mb 65f 58f
11:12 16 17 mph 1017.8mb 65f 58f
11:06 14 16 mph 1017.9mb 65f 58f
11:00 14 16 mph 1017.9mb 65f 58f
10:54 13 17 mph 1018mb 65f 58f
10:48 13 17 mph 1018mb 65f 58f
10:36 15 22 mph 1018mb 65f 59f
10:30 18 22 mph 1018mb 65f 59f
10:24 16 21 mph 1018mb 64f 59f
10:18 18 23 mph 1018mb 64f 59f
10:12 17 21 mph 1018mb 64f 59f
10:06 18 22 mph 1018mb 64f 59f
10:00 16 21 mph 1018mb 64f 59f
9:54 17 22 mph 1017.9mb 64f 59f
9:48 17 23 mph 1017.8mb 63f 59f
9:36 21 25 mph 1017.7mb 63f 59f
9:30 22 24 mph 1017.7mb 63f 59f
9:24 22 25 mph 1017.6mb 63f 59f
9:18 21 24 mph 1017.6mb 63f 59f
9:12 22 25 mph 1017.7mb 63f 59f
9:06 21 24 mph 1017.6mb 63f 59f
9:00 20 25 mph 1017.7mb 63f 59f
8:54 21 28 mph 1017.6mb 63f 59f
8:48 18 25 mph 1017.6mb 63f 59f
8:36 22 26 mph 1017.6mb 63f 59f
8:30 23 28 mph 1017.5mb 63f 59f
8:24 22 28 mph 1017.6mb 63f 59f
8:18 23 29 mph 1017.6mb 63f 60f
8:12 24 30 mph 1017.6mb 63f 60f
8:06 24 30 mph 1017.6mb 63f 60f
8:00 24 32 mph 1017.6mb 63f 60f
7:54 25 29 mph 1017.5mb 63f 60f
7:48 25 30 mph 1017.5mb 63f 60f
7:36 24 30 mph 1017.5mb 62f 60f
7:30 25 32 mph 1017.6mb 62f 60f
7:24 26 30 mph 1017.7mb 61f 60f
7:18 24 29 mph 1017.7mb 61f 60f
7:12 24 29 mph 1017.7mb 60f 60f
7:06 26 30 mph 1017.8mb 60f 60f
7:00 23 28 mph 1017.7mb 60f 60f
6:54 25 28 mph 1017.8mb 60f 60f
6:48 24 28 mph 1017.8mb 59f 60f
6:36 26 30 mph 1017.9mb 59f 61f
6:30 25 30 mph 1018mb 58f 61f
6:24 23 28 mph 1017.9mb 58f 61f
6:18 26 29 mph 1018mb 58f 61f
6:12 23 29 mph 1018mb 58f 61f
6:06 25 31 mph 1018.1mb 58f 61f
6:00 25 30 mph 1018.1mb 58f 61f
5:54 28 32 mph 1018.2mb 58f 61f
5:48 26 30 mph 1018.1mb 58f 61f
5:36 26 33 mph 1018.3mb 58f 61f
5:30 28 32 mph 1018.3mb 58f 61f
5:24 29 32 mph 1018.3mb 58f 61f
5:18 28 31 mph 1018.4mb 58f 61f
5:12 29 32 mph 1018.5mb 58f 61f
5:06 28 31 mph 1018.5mb 58f 61f
5:00 28 32 mph 1018.6mb 58f 61f
4:54 29 32 mph 1018.6mb 59f 61f
4:48 30 32 mph 1018.8mb 59f 61f
4:36 26 30 mph 1019mb 59f 61f
4:30 26 32 mph 1018.9mb 59f 61f
4:24 26 31 mph 1019mb 59f 61f
4:18 28 33 mph 1019mb 59f 61f
4:12 26 32 mph 1019.1mb 59f 61f
4:06 28 33 mph 1019.1mb 60f 61f
4:00 28 32 mph 1019.2mb 60f 61f
3:54 28 31 mph 1019.1mb 61f 61f
3:48 26 31 mph 1019.2mb 61f 61f
3:36 25 30 mph 1019.2mb 62f 61f
3:30 24 31 mph 1019.2mb 64f 61f
3:24 28 30 mph 1019.2mb 64f 61f
3:18 26 30 mph 1019.3mb 64f 61f
3:12 26 29 mph 1019.4mb 64f 61f
3:06 26 29 mph 1019.4mb 64f 61f
3:00 24 26 mph 1019.4mb 64f 61f
2:54 23 29 mph 1019.5mb 64f 61f
2:48 26 29 mph 1019.6mb 64f 61f
2:36 24 28 mph 1019.6mb 64f 61f
2:30 23 29 mph 1019.7mb 65f 61f
2:24 24 28 mph 1019.7mb 65f 61f
2:18 24 28 mph 1019.8mb 65f 61f
2:12 24 26 mph 1019.7mb 65f 61f
2:06 22 26 mph 1019.7mb 64f 61f
2:00 21 25 mph 1019.7mb 64f 61f
1:54 22 29 mph 1019.8mb 64f 61f
1:48 25 29 mph 1019.8mb 64f 61f
1:36 25 29 mph 1019.9mb 64f 61f
1:30 24 28 mph 1020mb 64f 61f
1:24 23 25 mph 1020mb 64f 61f
1:18 23 26 mph 1020mb 64f 61f
1:12 24 26 mph 1020.1mb 64f 61f
1:06 24 28 mph 1020.1mb 63f 61f
1:00 24 26 mph 1020.1mb 63f 61f
12:54 23 26 mph 1020.2mb 63f 61f
12:48 24 26 mph 1020.2mb 63f 61f
12:36 24 26 mph 1020.3mb 63f 61f
12:30 23 28 mph 1020.3mb 63f 61f
12:24 22 25 mph 1020.3mb 63f 61f
12:18 22 24 mph 1020.3mb 63f 62f
12:12 23 26 mph 1020.3mb 63f 62f
12:06 22 24 mph 1020.4mb 63f 62f
12:00 22 25 mph 1020.4mb 63f 61f
11:54 22 24 mph 1020.5mb 63f 61f
11:48 21 23 mph 1020.5mb 63f 61f
11:36 22 24 mph 1020.5mb 63f 62f
11:30 21 22 mph 1020.5mb 63f 62f
11:24 20 22 mph 1020.7mb 64f 62f
11:18 18 21 mph 1020.6mb 64f 62f
11:12 18 21 mph 1020.6mb 64f 62f
11:06 17 21 mph 1020.6mb 64f 62f
11:00 20 21 mph 1020.5mb 64f 61f
10:54 21 22 mph 1020.5mb 64f 61f
10:48 20 21 mph 1020.6mb 64f 61f
10:36 15 16 mph 1020.6mb 64f 62f
10:30 14 16 mph 1020.7mb 64f 62f
10:24 16 17 mph 1020.8mb 64f 62f
10:18 14 17 mph 1020.8mb 64f 62f
10:12 8 11 mph 1020.9mb 64f 64f
10:06 3 6 mph 1021mb 64f 65f
10:00 5 6 mph 1021mb 64f 65f
9:54 3 6 mph 1021.1mb 64f 64f
9:48 3 7 mph 1021.2mb 64f 64f
9:36 3 7 mph 1021.2mb 64f 62f
9:30 5 7 mph 1021.2mb 64f 62f
9:24 5 7 mph 1021.2mb 64f 62f
9:18 5 7 mph 1021.2mb 64f 62f
9:12 3 6 mph 1021.3mb 64f 61f
9:06 5 7 mph 1021.3mb 64f 61f
9:00 6 7 mph 1021.3mb 63f 62f
8:54 6 8 mph 1021.3mb 63f 61f
8:48 5 8 mph 1021.2mb 63f 61f
8:36 6 7 mph 1021.3mb 62f 61f
8:30 6
mph
1021.3mb 62f 61f
8:24 5 6 mph 1021.3mb 62f 61f
8:18 5 6 mph 1021.2mb 62f 61f
8:12 6 8 mph 1021.2mb 62f 60f
8:06 7 8 mph 1021.1mb 62f 60f
8:00 6 7 mph 1021.1mb 62f 60f
7:54 6 7 mph 1021.1mb 62f 60f
7:48 6 7 mph 1021.1mb 62f 60f
7:36 6 8 mph 1021.1mb 62f 58f
7:30 7 8 mph 1021.1mb 62f 58f
7:24 7 8 mph 1021.1mb 62f 58f
7:18 7 8 mph 1021.1mb 62f 57f
7:12 7 8 mph 1021mb 62f 57f
7:06 7 8 mph 1021.1mb 62f 57f
7:00 6 8 mph 1021.1mb 62f 57f
6:54 6 8 mph 1021.1mb 62f 57f
6:48 7 8 mph 1021.1mb 62f 56f
6:36 7 8 mph 1021mb 62f 56f
6:30 7
mph
1021mb 61f 56f
6:24 7
mph
1021mb 61f 56f
6:18 7
mph
1021mb 61f 56f
6:12 6 7 mph 1021mb 61f 56f
6:06 6
mph
1021mb 61f 56f
6:00 5 6 mph 1021mb 61f 56f
5:54 5 6 mph 1021mb 61f 56f
5:48 6 7 mph 1021mb 61f 56f
5:36 7 8 mph 1021mb 60f 56f
5:30 7 9 mph 1021.1mb 60f 56f
5:24 7 9 mph 1021mb 60f 56f
5:18 7 8 mph 1021mb 60f 57f
5:12 8 9 mph 1021.1mb 60f 57f
5:06 7 10 mph 1021.1mb 60f 57f
5:00 10 11 mph 1021.1mb 60f 57f
4:54 13 15 mph 1021.2mb 60f 57f
4:48 14 15 mph 1021.1mb 59f 57f
4:36 14 16 mph 1021.1mb 59f 57f
4:30 14 15 mph 1021.1mb 59f 57f
4:24 14 15 mph 1021.1mb 60f 57f
4:18 14 17 mph 1021.2mb 60f 57f
4:12 16 20 mph 1021.2mb 60f 57f
4:06 15 21 mph 1021.2mb 60f 57f
4:00 14 17 mph 1021.3mb 60f 57f
3:54 14 17 mph 1021.4mb 60f 57f
3:48 14 16 mph 1021.4mb 60f 57f
3:36 15 17 mph 1021.5mb 62f 58f
3:30 14 16 mph 1021.6mb 62f 58f
3:24 14 17 mph 1021.6mb 63f 58f
3:18 14 17 mph 1021.7mb 64f 58f
3:12 15 20 mph 1021.7mb 64f 58f
3:06 15 17 mph 1021.8mb 64f 58f
3:00 13 20 mph 1021.8mb 64f 58f
2:54 16 18 mph 1021.9mb 64f 58f
2:48 15 20 mph 1021.8mb 64f 58f
2:36 14 18 mph 1021.9mb 64f 58f
2:30 16 18 mph 1022mb 64f 58f
2:24 16 20 mph 1022mb 64f 58f
2:18 16 18 mph 1022mb 64f 58f
2:12 15 17 mph 1022.1mb 64f 58f
2:06 14 18 mph 1022.1mb 64f 58f
2:00 14 16 mph 1022.1mb 64f 58f
1:54 14 17 mph 1022.2mb 64f 58f
1:48 15 18 mph 1022.2mb 64f 58f
1:36 16 20 mph 1022.2mb 64f 58f
1:30 16 18 mph 1022.2mb 64f 58f
1:24 14 18 mph 1022.2mb 64f 59f
1:18 15 17 mph 1022.3mb 64f 59f
1:12 13 16 mph 1022.3mb 64f 59f
1:06 14 17 mph 1022.4mb 64f 59f
1:00 16 20 mph 1022.4mb 64f 59f
12:54 15 17 mph 1022.4mb 64f 59f
12:48 15 18 mph 1022.5mb 64f 59f
12:36 15 18 mph 1022.5mb 64f 59f
12:30 14 17 mph 1022.6mb 64f 59f
12:24 16 20 mph 1022.7mb 64f 59f
12:18 16 18 mph 1022.7mb 64f 59f
12:12 14 17 mph 1022.8mb 64f 59f
12:06 15 16 mph 1022.8mb 64f 59f
12:00 15 17 mph 1022.9mb 64f 59f
sam. 07/23 11:54 14 16 mph 1023mb 64f 59f
11:48 14 16 mph 1023mb 64f 59f
11:36 14 16 mph 1023.2mb 64f 59f
11:30 13 15 mph 1023.2mb 64f 59f
11:24 11 15 mph 1023.3mb 64f 60f
11:18 11 14 mph 1023.3mb 65f 59f
11:12 11 14 mph 1023.3mb 65f 59f
11:06 10 13 mph 1023.5mb 65f 60f
11:00 10 13 mph 1023.6mb 65f 60f
10:54 11 13 mph 1023.6mb 65f 60f
10:48 11 13 mph 1023.6mb 65f 60f
10:36 11 14 mph 1023.7mb 65f 60f
10:30 11 13 mph 1023.8mb 65f 60f
10:24 11 14 mph 1023.8mb 65f 60f
10:18 13 15 mph 1023.8mb 65f 60f
10:12 11 15 mph 1023.9mb 65f 60f
10:06 13 15 mph 1023.9mb 65f 60f
10:00 13 17 mph 1023.9mb 65f 60f
9:54 14 15 mph 1023.9mb 65f 60f
9:48 14 16 mph 1023.9mb 65f 60f
9:36 13 16 mph 1023.9mb 64f 60f
9:30 14 17 mph 1023.9mb 64f 60f
9:24 14 15 mph 1023.9mb 64f 60f
9:18 14 16 mph 1023.9mb 64f 60f
9:12 14 16 mph 1023.9mb 64f 60f
9:06 15 16 mph 1023.9mb 64f 60f
9:00 14 18 mph 1023.9mb 64f 60f
8:54 16 18 mph 1023.9mb 64f 60f
8:48 15 17 mph 1023.9mb 64f 60f
8:36 16 18 mph 1024mb 64f 61f
8:30 16 18 mph 1024mb 64f 61f
8:24 16 18 mph 1024.1mb 64f 61f
8:18 16 20 mph 1024mb 64f 61f
8:12 18 21 mph 1024.1mb 64f 61f
8:06 20 22 mph 1024mb 64f 61f
8:00 18 21 mph 1024mb 64f 61f
7:54 20 22 mph 1024mb 64f 61f
7:48 20 22 mph 1024.1mb 64f 61f
7:36 15 20 mph 1024.1mb 64f 61f
7:30 18 20 mph 1024.1mb 64f 61f
7:24 16 21 mph 1024.2mb 64f 61f
7:18 18 21 mph 1024.1mb 64f 61f
7:12 20 22 mph 1024.3mb 64f 61f
7:06 18 21 mph 1024.3mb 64f 61f
7:00 18 21 mph 1024.3mb 63f 61f
6:54 20 22 mph 1024.3mb 63f 61f
6:48 21 23 mph 1024.3mb 63f 62f
6:36 17 22 mph 1024.4mb 62f 62f
6:30 18 21 mph 1024.4mb 62f 62f
6:24 21 23 mph 1024.5mb 62f 62f
6:18 20 22 mph 1024.5mb 61f 62f
6:12 20 22 mph 1024.6mb 61f 62f
6:06 18 22 mph 1024.7mb 61f 62f
6:00 17 23 mph 1024.8mb 60f 62f
5:54 21 23 mph 1024.8mb 60f 62f
5:48 20 23 mph 1024.9mb 60f 62f
5:36 18 22 mph 1024.9mb 60f 62f
5:30 20 22 mph 1024.9mb 60f 62f
5:24 16 22 mph 1025mb 60f 62f
5:18 20 22 mph 1025mb 60f 62f
5:12 21 23 mph 1025mb 60f 62f
5:06 18 21 mph 1025.1mb 60f 62f
5:00 20 23 mph 1025.1mb 60f 62f
4:54 17 23 mph 1025.1mb 60f 62f
4:48 20 22 mph 1025.2mb 60f 62f
4:36 21 23 mph 1025.3mb 60f -
4:30 21 24 mph 1025.3mb 60f -
4:24 22 25 mph 1025.4mb 60f -
4:18 22 25 mph 1025.4mb 60f -
4:12 20 24 mph 1025.4mb 60f -
4:06 21 24 mph 1025.4mb 60f -
4:00 22 24 mph 1025.6mb 60f -
3:54 21 24 mph 1025.5mb 60f -
3:48 21 24 mph 1025.6mb 61f -
3:36 21 25 mph 1025.7mb 61f 62f
3:30 21 24 mph 1025.7mb 62f 62f
3:24 22 25 mph 1025.6mb 62f 62f
3:18 23 24 mph 1025.7mb 64f 62f
3:12 22 25 mph 1025.7mb 64f 62f
3:06 22 23 mph 1025.7mb 64f 62f
3:00 22 23 mph 1025.6mb 64f 61f
2:54 22 24 mph 1025.6mb 64f 61f
2:48 21 23 mph 1025.7mb 64f 61f
2:36 22
mph
1025.6mb 64f 61f
2:30 21 22 mph 1025.6mb 64f 61f
2:24 18 22 mph 1025.7mb 64f 61f
2:18 21 22 mph 1025.6mb 64f 61f
2:12 20 22 mph 1025.6mb 64f 61f
2:06 21 22 mph 1025.6mb 64f 61f
2:00 21 22 mph 1025.5mb 64f 61f
1:54 18 22 mph 1025.6mb 64f 62f
1:48 21 22 mph 1025.7mb 64f 62f
1:36 18 21 mph 1025.6mb 64f 62f
1:30 17 22 mph 1025.6mb 64f 62f
1:24 21 22 mph 1025.6mb 64f 62f
1:18 17 21 mph 1025.7mb 64f 62f
1:12 20 22 mph 1025.8mb 64f 62f
1:06 18 21 mph 1025.7mb 64f 62f
1:00 17 20 mph 1025.7mb 64f 62f
12:54 16 18 mph 1025.7mb 63f 62f
12:48 17 21 mph 1025.7mb 63f 62f
12:36 16 20 mph 1025.7mb 63f 62f
12:30 17 21 mph 1025.7mb 63f 62f
12:24 16 20 mph 1025.8mb 63f 62f
12:18 17 20 mph 1025.8mb 63f 62f
12:12 17 20 mph 1025.8mb 63f 62f
12:06 17 21 mph 1025.7mb 63f 62f
12:00 15 21 mph 1025.7mb 63f 62f
11:36 16 20 mph 1025.9mb 63f 62f
11:30 17 20 mph 1025.8mb 63f 62f
11:24 16 21 mph 1025.9mb 63f 62f
11:18 15 17 mph 1025.9mb 63f 62f
11:12 16 17 mph 1025.9mb 63f 63f
11:06 15 18 mph 1025.9mb 63f 62f
11:00 15 17 mph 1025.9mb 63f 62f
10:54 16 18 mph 1025.8mb 64f 62f
10:48 16 17 mph 1025.8mb 64f 62f
10:36 15 17 mph 1025.8mb 64f 62f
10:30 15 18 mph 1025.9mb 64f 62f
10:24 16 20 mph 1025.9mb 64f 62f
10:18 16 18 mph 1025.9mb 64f 62f
10:12 17 20 mph 1025.9mb 64f 62f
10:06 16 17 mph 1025.9mb 64f 62f
10:00 15 17 mph 1025.9mb 64f 63f
9:54 16 18 mph 1025.8mb 63f 63f
9:48 13 17 mph 1025.7mb 63f 63f
9:36 14 16 mph 1025.8mb 63f 62f
9:30 15 17 mph 1025.8mb 63f 62f
9:24 16 17 mph 1025.7mb 63f 61f
9:18 14 17 mph 1025.8mb 63f 61f
9:12 15 17 mph 1025.7mb 63f 61f
9:06 15 16 mph 1025.7mb 63f 61f
9:00 11 15 mph 1025.7mb 63f 61f
8:54 13 15 mph 1025.7mb 64f 61f
8:48 14 15 mph 1025.7mb 64f 61f
8:36 10 13 mph 1025.7mb 64f 60f
8:30 11 13 mph 1025.7mb 64f 60f
8:24 11 13 mph 1025.6mb 64f 59f
8:18 11 13 mph 1025.6mb 63f 59f
8:12 9 11 mph 1025.6mb 63f 60f
8:06 10 13 mph 1025.6mb 63f 59f
8:00 13 14 mph 1025.5mb 63f 59f
7:54 14 17 mph 1025.5mb 62f 60f
7:48 15 17 mph 1025.5mb 62f 60f
7:36 13 14 mph 1025.4mb 62f 58f
7:30 14 15 mph 1025.4mb 62f 58f
7:24 10 16 mph 1025.4mb 62f 58f
7:18 11 14 mph 1025.4mb 62f 58f
7:12 9 11 mph 1025.5mb 62f 58f
7:06 10 13 mph 1025.6mb 62f 58f
7:00 8 14 mph 1025.6mb 62f 58f
6:36 10 14 mph 1025.6mb 62f 57f
6:30 13 17 mph 1025.6mb 62f 57f
6:24 13 14 mph 1025.5mb 62f 57f
6:18 11 14 mph 1025.5mb 62f 57f
6:12 10 14 mph 1025.4mb 62f 57f
6:06 11 14 mph 1025.4mb 62f 57f
6:00 11 14 mph 1025.5mb 62f 57f
5:54 13 15 mph 1025.4mb 62f 57f
5:48 14 16 mph 1025.4mb 62f 57f
5:36 10 11 mph 1025.3mb 61f 59f
5:30 7 9 mph 1025.2mb 61f 59f
5:24 6 9 mph 1025.2mb 61f 59f
5:18 7 9 mph 1025.2mb 61f 59f
5:12 10 11 mph 1025.3mb 61f 59f
5:06 10 13 mph 1025.2mb 61f 59f
5:00 11 14 mph 1025.2mb 61f 59f
4:54 11 14 mph 1025.2mb 61f 59f
4:48 9 11 mph 1025.2mb 61f 59f
4:36 11 13 mph 1025.2mb 61f 59f
4:30 10 11 mph 1025.2mb 61f 59f
4:24 9 11 mph 1025.2mb 61f 59f
4:18 10 11 mph 1025.2mb 61f 59f
4:12 10 11 mph 1025.3mb 61f 60f
4:06 10 11 mph 1025.3mb 61f 60f
4:00 11 13 mph 1025.3mb 60f 60f
3:54 10 11 mph 1025.2mb 60f 60f
3:48 10
mph
1025.2mb 60f 60f
3:36 9 11 mph 1025.3mb 60f 59f
3:30 10 11 mph 1025.3mb 60f 59f
3:24 11
mph
1025.2mb 60f 59f
3:18 9 10 mph 1025.3mb 60f 59f
3:12 10 13 mph 1025.3mb 61f 59f
3:06 11 14 mph 1025.3mb 61f 59f
3:00 14 16 mph 1025.3mb 61f 59f
2:54 14 15 mph 1025.4mb 61f 60f
2:48 11 14 mph 1025.4mb 62f 60f
2:36 13 14 mph 1025.5mb 63f 60f
2:30 11 13 mph 1025.6mb 63f 60f
2:24 11 13 mph 1025.6mb 63f 60f
2:18 11
mph
1025.7mb 63f 60f
2:12 7 8 mph 1025.8mb 63f 59f
2:06 7 8 mph 1025.8mb 63f 59f
2:00 7 8 mph 1025.8mb 63f 59f
1:54 8
mph
1025.9mb 63f 59f
1:48 7 8 mph 1025.9mb 63f 59f
1:36 7 9 mph 1026mb 63f 59f
1:30 9 10 mph 1026.1mb 63f 58f
1:24 8 9 mph 1026.1mb 63f 58f
1:18 8 10 mph 1026.2mb 63f 59f
1:12 7 14 mph 1026.2mb 63f 58f
1:06 14 17 mph 1026.2mb 63f 59f
1:00 16 17 mph 1026.2mb 63f 59f
12:54 9 13 mph 1026.3mb 63f 60f
12:48 7
mph
1026.3mb 64f 60f
12:36 8 9 mph 1026.4mb 64f 60f
12:30 10 11 mph 1026.4mb 64f 60f
12:24 13 14 mph 1026.4mb 64f 59f
12:18 8 9 mph 1026.4mb 64f 60f
12:12 8 9 mph 1026.3mb 64f 60f
12:06 8 9 mph 1026.4mb 64f 60f
12:00 8 9 mph 1026.4mb 64f 60f
ven. 07/22 11:54 8
mph
1026.4mb 64f 60f
11:48 7 8 mph 1026.4mb 64f 60f
11:36 7 8 mph 1026.5mb 64f 60f
11:30 6 7 mph 1026.6mb 64f 60f
11:24 5 6 mph 1026.6mb 64f 60f
11:18 5 7 mph 1026.7mb 63f 60f
11:12 5 6 mph 1026.6mb 63f 60f
11:06 3 5 mph 1026.6mb 63f 59f
11:00 5
mph
1026.6mb 63f 59f
10:54 3 5 mph 1026.6mb 63f 59f
10:48 5
mph
1026.7mb 63f 59f
10:36 5 7 mph 1026.7mb 64f 58f
10:30 7 9 mph 1026.8mb 64f 58f
10:24 8 14 mph 1026.8mb 64f 58f
10:18 14 17 mph 1026.8mb 64f 59f
10:12 8 9 mph 1026.7mb 64f 60f
10:06 7
mph
1026.7mb 64f 60f
10:00 7
mph
1026.7mb 64f 60f
9:54 7
mph
1026.7mb 64f 60f
9:48 3 5 mph 1026.6mb 64f 60f
9:36 5
mph
1026.5mb 64f 60f
9:30 5 6 mph 1026.5mb 64f 60f
9:24 3 5 mph 1026.5mb 64f 60f
9:18 3
mph
1026.5mb 64f 59f
9:12 2 3 mph 1026.5mb 64f 59f
9:06 2
mph
1026.6mb 64f 59f
9:00 2
mph
1026.5mb 64f 59f
8:54 1 2 mph 1026.5mb 64f 59f
8:48 1 2 mph 1026.5mb 64f 59f
8:36  -  1 mph 1026.5mb 64f 59f
8:30 1 2 mph 1026.5mb 64f 59f
8:24 1 3 mph 1026.6mb 64f 58f
8:18 3 5 mph 1026.7mb 64f 58f
8:12 5 6 mph 1026.7mb 64f 58f